sensor_id;sensor_type;location;lat;lon;timestamp;P1;durP1;ratioP1;P2;durP2;ratioP2
13805;SDS011;6974;53.606;9.872;2022-11-23T00:01:26;31.07;;;22.53;;
13805;SDS011;6974;53.606;9.872;2022-11-23T00:03:55;31.27;;;21.33;;
13805;SDS011;6974;53.606;9.872;2022-11-23T00:06:23;32.00;;;23.07;;
13805;SDS011;6974;53.606;9.872;2022-11-23T00:08:51;32.67;;;22.77;;
13805;SDS011;6974;53.606;9.872;2022-11-23T00:11:19;31.60;;;22.77;;
13805;SDS011;6974;53.606;9.872;2022-11-23T00:13:49;31.63;;;22.37;;
13805;SDS011;6974;53.606;9.872;2022-11-23T00:16:16;33.63;;;21.80;;
13805;SDS011;6974;53.606;9.872;2022-11-23T00:18:45;33.63;;;22.33;;
13805;SDS011;6974;53.606;9.872;2022-11-23T00:21:13;32.43;;;21.83;;
13805;SDS011;6974;53.606;9.872;2022-11-23T00:23:41;32.47;;;21.53;;
13805;SDS011;6974;53.606;9.872;2022-11-23T00:26:09;37.00;;;24.00;;
13805;SDS011;6974;53.606;9.872;2022-11-23T00:28:36;31.43;;;22.27;;
13805;SDS011;6974;53.606;9.872;2022-11-23T00:31:06;34.37;;;23.63;;
13805;SDS011;6974;53.606;9.872;2022-11-23T00:33:34;32.63;;;22.40;;
13805;SDS011;6974;53.606;9.872;2022-11-23T00:36:02;32.10;;;21.77;;
13805;SDS011;6974;53.606;9.872;2022-11-23T00:38:30;31.83;;;22.50;;
13805;SDS011;6974;53.606;9.872;2022-11-23T00:40:58;34.57;;;22.47;;
13805;SDS011;6974;53.606;9.872;2022-11-23T00:43:26;33.50;;;21.77;;
13805;SDS011;6974;53.606;9.872;2022-11-23T00:46:06;33.50;;;22.67;;
13805;SDS011;6974;53.606;9.872;2022-11-23T00:48:35;32.00;;;21.80;;
13805;SDS011;6974;53.606;9.872;2022-11-23T00:51:02;34.43;;;22.53;;
13805;SDS011;6974;53.606;9.872;2022-11-23T00:53:31;32.40;;;21.70;;
13805;SDS011;6974;53.606;9.872;2022-11-23T00:55:58;31.10;;;22.70;;
13805;SDS011;6974;53.606;9.872;2022-11-23T00:58:25;31.47;;;22.13;;
13805;SDS011;6974;53.606;9.872;2022-11-23T01:01:02;34.20;;;22.60;;
13805;SDS011;6974;53.606;9.872;2022-11-23T01:03:32;33.43;;;22.33;;
13805;SDS011;6974;53.606;9.872;2022-11-23T01:06:06;30.23;;;21.13;;
13805;SDS011;6974;53.606;9.872;2022-11-23T01:08:34;31.57;;;22.80;;
13805;SDS011;6974;53.606;9.872;2022-11-23T01:11:01;28.93;;;21.23;;
13805;SDS011;6974;53.606;9.872;2022-11-23T01:13:31;30.77;;;20.60;;
13805;SDS011;6974;53.606;9.872;2022-11-23T01:15:58;30.80;;;21.00;;
13805;SDS011;6974;53.606;9.872;2022-11-23T01:18:25;30.17;;;21.33;;
13805;SDS011;6974;53.606;9.872;2022-11-23T01:20:54;30.43;;;21.73;;
13805;SDS011;6974;53.606;9.872;2022-11-23T01:23:20;31.70;;;20.93;;
13805;SDS011;6974;53.606;9.872;2022-11-23T01:25:47;30.30;;;20.60;;
13805;SDS011;6974;53.606;9.872;2022-11-23T01:28:14;30.93;;;21.40;;
13805;SDS011;6974;53.606;9.872;2022-11-23T01:30:41;31.27;;;21.77;;
13805;SDS011;6974;53.606;9.872;2022-11-23T01:33:08;30.57;;;21.00;;
13805;SDS011;6974;53.606;9.872;2022-11-23T01:35:35;31.30;;;21.07;;
13805;SDS011;6974;53.606;9.872;2022-11-23T01:38:03;34.47;;;22.80;;
13805;SDS011;6974;53.606;9.872;2022-11-23T01:40:30;27.80;;;20.60;;
13805;SDS011;6974;53.606;9.872;2022-11-23T01:43:05;28.57;;;21.50;;
13805;SDS011;6974;53.606;9.872;2022-11-23T01:45:39;31.87;;;21.67;;
13805;SDS011;6974;53.606;9.872;2022-11-23T01:48:09;30.77;;;21.30;;
13805;SDS011;6974;53.606;9.872;2022-11-23T01:50:39;35.47;;;22.20;;
13805;SDS011;6974;53.606;9.872;2022-11-23T01:53:09;29.90;;;20.90;;
13805;SDS011;6974;53.606;9.872;2022-11-23T01:55:36;30.47;;;21.00;;
13805;SDS011;6974;53.606;9.872;2022-11-23T01:58:04;29.17;;;20.77;;
13805;SDS011;6974;53.606;9.872;2022-11-23T02:00:33;30.77;;;22.17;;
13805;SDS011;6974;53.606;9.872;2022-11-23T02:03:01;33.97;;;20.67;;
13805;SDS011;6974;53.606;9.872;2022-11-23T02:05:31;29.83;;;21.53;;
13805;SDS011;6974;53.606;9.872;2022-11-23T02:08:00;32.27;;;20.23;;
13805;SDS011;6974;53.606;9.872;2022-11-23T02:10:29;28.83;;;20.67;;
13805;SDS011;6974;53.606;9.872;2022-11-23T02:12:59;29.20;;;20.97;;
13805;SDS011;6974;53.606;9.872;2022-11-23T02:15:28;30.03;;;21.90;;
13805;SDS011;6974;53.606;9.872;2022-11-23T02:17:55;28.67;;;20.63;;
13805;SDS011;6974;53.606;9.872;2022-11-23T02:20:24;28.33;;;20.50;;
13805;SDS011;6974;53.606;9.872;2022-11-23T02:22:55;30.00;;;21.07;;
13805;SDS011;6974;53.606;9.872;2022-11-23T02:25:37;28.33;;;19.53;;
13805;SDS011;6974;53.606;9.872;2022-11-23T02:28:12;28.83;;;19.90;;
13805;SDS011;6974;53.606;9.872;2022-11-23T02:30:42;26.87;;;20.67;;
13805;SDS011;6974;53.606;9.872;2022-11-23T02:33:10;24.87;;;18.40;;
13805;SDS011;6974;53.606;9.872;2022-11-23T02:35:45;31.40;;;20.90;;
13805;SDS011;6974;53.606;9.872;2022-11-23T02:38:14;29.43;;;19.77;;
13805;SDS011;6974;53.606;9.872;2022-11-23T02:40:43;27.57;;;18.80;;
13805;SDS011;6974;53.606;9.872;2022-11-23T02:43:11;28.83;;;20.23;;
13805;SDS011;6974;53.606;9.872;2022-11-23T02:45:40;28.77;;;20.37;;
13805;SDS011;6974;53.606;9.872;2022-11-23T02:48:12;29.10;;;19.27;;
13805;SDS011;6974;53.606;9.872;2022-11-23T02:50:39;30.73;;;20.00;;
13805;SDS011;6974;53.606;9.872;2022-11-23T02:53:06;29.50;;;20.17;;
13805;SDS011;6974;53.606;9.872;2022-11-23T02:55:33;30.00;;;20.00;;
13805;SDS011;6974;53.606;9.872;2022-11-23T02:58:00;25.23;;;19.40;;
13805;SDS011;6974;53.606;9.872;2022-11-23T03:00:28;32.80;;;20.30;;
13805;SDS011;6974;53.606;9.872;2022-11-23T03:02:55;28.57;;;20.40;;
13805;SDS011;6974;53.606;9.872;2022-11-23T03:05:23;27.93;;;19.90;;
13805;SDS011;6974;53.606;9.872;2022-11-23T03:07:49;26.70;;;19.80;;
13805;SDS011;6974;53.606;9.872;2022-11-23T03:10:16;29.57;;;19.97;;
13805;SDS011;6974;53.606;9.872;2022-11-23T03:12:44;26.67;;;19.37;;
13805;SDS011;6974;53.606;9.872;2022-11-23T03:15:11;28.73;;;19.80;;
13805;SDS011;6974;53.606;9.872;2022-11-23T03:17:39;29.67;;;20.20;;
13805;SDS011;6974;53.606;9.872;2022-11-23T03:20:06;29.83;;;19.43;;
13805;SDS011;6974;53.606;9.872;2022-11-23T03:22:34;29.93;;;19.33;;
13805;SDS011;6974;53.606;9.872;2022-11-23T03:25:01;29.30;;;20.00;;
13805;SDS011;6974;53.606;9.872;2022-11-23T03:27:28;27.17;;;19.07;;
13805;SDS011;6974;53.606;9.872;2022-11-23T03:29:57;23.90;;;18.23;;
13805;SDS011;6974;53.606;9.872;2022-11-23T03:32:24;28.37;;;20.73;;
13805;SDS011;6974;53.606;9.872;2022-11-23T03:34:52;24.10;;;17.47;;
13805;SDS011;6974;53.606;9.872;2022-11-23T03:37:19;28.03;;;19.10;;
13805;SDS011;6974;53.606;9.872;2022-11-23T03:39:46;26.53;;;18.57;;
13805;SDS011;6974;53.606;9.872;2022-11-23T03:42:13;27.13;;;19.37;;
13805;SDS011;6974;53.606;9.872;2022-11-23T03:44:40;27.43;;;18.87;;
13805;SDS011;6974;53.606;9.872;2022-11-23T03:47:07;26.20;;;17.83;;
13805;SDS011;6974;53.606;9.872;2022-11-23T03:49:34;29.03;;;19.67;;
13805;SDS011;6974;53.606;9.872;2022-11-23T03:52:02;28.53;;;18.90;;
13805;SDS011;6974;53.606;9.872;2022-11-23T03:54:29;23.97;;;17.43;;
13805;SDS011;6974;53.606;9.872;2022-11-23T03:56:56;24.47;;;18.27;;
13805;SDS011;6974;53.606;9.872;2022-11-23T03:59:23;28.73;;;19.53;;
13805;SDS011;6974;53.606;9.872;2022-11-23T04:01:50;26.93;;;18.80;;
13805;SDS011;6974;53.606;9.872;2022-11-23T04:04:17;27.97;;;18.77;;
13805;SDS011;6974;53.606;9.872;2022-11-23T04:06:44;25.73;;;18.37;;
13805;SDS011;6974;53.606;9.872;2022-11-23T04:09:12;26.13;;;18.17;;
13805;SDS011;6974;53.606;9.872;2022-11-23T04:11:39;26.63;;;19.00;;
13805;SDS011;6974;53.606;9.872;2022-11-23T04:14:06;29.17;;;18.63;;
13805;SDS011;6974;53.606;9.872;2022-11-23T04:16:33;28.27;;;19.37;;
13805;SDS011;6974;53.606;9.872;2022-11-23T04:19:00;25.07;;;18.67;;
13805;SDS011;6974;53.606;9.872;2022-11-23T04:21:26;25.17;;;17.77;;
13805;SDS011;6974;53.606;9.872;2022-11-23T04:23:53;24.77;;;18.77;;
13805;SDS011;6974;53.606;9.872;2022-11-23T04:26:21;24.87;;;17.57;;
13805;SDS011;6974;53.606;9.872;2022-11-23T04:28:48;29.37;;;19.07;;
13805;SDS011;6974;53.606;9.872;2022-11-23T04:31:15;22.40;;;17.60;;
13805;SDS011;6974;53.606;9.872;2022-11-23T04:33:42;25.70;;;18.13;;
13805;SDS011;6974;53.606;9.872;2022-11-23T04:36:09;27.73;;;18.27;;
13805;SDS011;6974;53.606;9.872;2022-11-23T04:38:36;25.20;;;17.67;;
13805;SDS011;6974;53.606;9.872;2022-11-23T04:41:03;25.47;;;17.43;;
13805;SDS011;6974;53.606;9.872;2022-11-23T04:43:31;26.23;;;18.70;;
13805;SDS011;6974;53.606;9.872;2022-11-23T04:45:58;28.23;;;18.93;;
13805;SDS011;6974;53.606;9.872;2022-11-23T04:48:25;26.90;;;17.97;;
13805;SDS011;6974;53.606;9.872;2022-11-23T04:50:52;22.23;;;16.43;;
13805;SDS011;6974;53.606;9.872;2022-11-23T04:53:19;25.57;;;17.00;;
13805;SDS011;6974;53.606;9.872;2022-11-23T04:55:46;26.80;;;18.83;;
13805;SDS011;6974;53.606;9.872;2022-11-23T04:58:13;25.13;;;17.53;;
13805;SDS011;6974;53.606;9.872;2022-11-23T05:00:42;25.03;;;17.53;;
13805;SDS011;6974;53.606;9.872;2022-11-23T05:03:09;26.20;;;17.17;;
13805;SDS011;6974;53.606;9.872;2022-11-23T05:05:36;22.70;;;15.93;;
13805;SDS011;6974;53.606;9.872;2022-11-23T05:08:04;23.47;;;17.13;;
13805;SDS011;6974;53.606;9.872;2022-11-23T05:10:31;24.90;;;16.87;;
13805;SDS011;6974;53.606;9.872;2022-11-23T05:12:58;21.27;;;15.97;;
13805;SDS011;6974;53.606;9.872;2022-11-23T05:15:25;24.77;;;17.20;;
13805;SDS011;6974;53.606;9.872;2022-11-23T05:17:53;23.17;;;17.00;;
13805;SDS011;6974;53.606;9.872;2022-11-23T05:20:26;25.80;;;17.07;;
13805;SDS011;6974;53.606;9.872;2022-11-23T05:22:53;26.57;;;16.53;;
13805;SDS011;6974;53.606;9.872;2022-11-23T05:25:20;25.80;;;18.20;;
13805;SDS011;6974;53.606;9.872;2022-11-23T05:27:46;23.33;;;16.60;;
13805;SDS011;6974;53.606;9.872;2022-11-23T05:30:13;27.07;;;17.33;;
13805;SDS011;6974;53.606;9.872;2022-11-23T05:32:40;24.80;;;17.30;;
13805;SDS011;6974;53.606;9.872;2022-11-23T05:35:09;22.17;;;16.33;;
13805;SDS011;6974;53.606;9.872;2022-11-23T05:37:36;25.80;;;17.37;;
13805;SDS011;6974;53.606;9.872;2022-11-23T05:40:04;23.77;;;17.53;;
13805;SDS011;6974;53.606;9.872;2022-11-23T05:42:32;23.90;;;17.43;;
13805;SDS011;6974;53.606;9.872;2022-11-23T05:44:59;25.67;;;16.87;;
13805;SDS011;6974;53.606;9.872;2022-11-23T05:47:26;25.07;;;17.00;;
13805;SDS011;6974;53.606;9.872;2022-11-23T05:49:53;25.90;;;17.87;;
13805;SDS011;6974;53.606;9.872;2022-11-23T05:52:23;26.40;;;17.40;;
13805;SDS011;6974;53.606;9.872;2022-11-23T05:54:50;25.40;;;18.90;;
13805;SDS011;6974;53.606;9.872;2022-11-23T05:57:17;26.40;;;16.43;;
13805;SDS011;6974;53.606;9.872;2022-11-23T05:59:46;20.40;;;16.30;;
13805;SDS011;6974;53.606;9.872;2022-11-23T06:02:13;24.50;;;17.10;;
13805;SDS011;6974;53.606;9.872;2022-11-23T06:04:40;23.20;;;16.47;;
13805;SDS011;6974;53.606;9.872;2022-11-23T06:07:07;28.30;;;16.90;;
13805;SDS011;6974;53.606;9.872;2022-11-23T06:09:35;25.07;;;17.17;;
13805;SDS011;6974;53.606;9.872;2022-11-23T06:12:03;23.47;;;16.93;;
13805;SDS011;6974;53.606;9.872;2022-11-23T06:14:30;24.37;;;16.73;;
13805;SDS011;6974;53.606;9.872;2022-11-23T06:16:57;22.30;;;16.90;;
13805;SDS011;6974;53.606;9.872;2022-11-23T06:19:24;26.70;;;18.00;;
13805;SDS011;6974;53.606;9.872;2022-11-23T06:21:54;24.50;;;17.00;;
13805;SDS011;6974;53.606;9.872;2022-11-23T06:24:21;25.27;;;17.50;;
13805;SDS011;6974;53.606;9.872;2022-11-23T06:26:49;23.30;;;16.60;;
13805;SDS011;6974;53.606;9.872;2022-11-23T06:29:16;27.03;;;17.50;;
13805;SDS011;6974;53.606;9.872;2022-11-23T06:31:43;27.17;;;17.57;;
13805;SDS011;6974;53.606;9.872;2022-11-23T06:34:10;23.87;;;16.50;;
13805;SDS011;6974;53.606;9.872;2022-11-23T06:36:38;23.50;;;16.57;;
13805;SDS011;6974;53.606;9.872;2022-11-23T06:39:05;22.90;;;15.90;;
13805;SDS011;6974;53.606;9.872;2022-11-23T06:41:32;24.57;;;15.80;;
13805;SDS011;6974;53.606;9.872;2022-11-23T06:44:00;23.13;;;16.23;;
13805;SDS011;6974;53.606;9.872;2022-11-23T06:46:27;21.50;;;16.17;;
13805;SDS011;6974;53.606;9.872;2022-11-23T06:48:53;23.03;;;15.43;;
13805;SDS011;6974;53.606;9.872;2022-11-23T06:51:20;23.17;;;16.00;;
13805;SDS011;6974;53.606;9.872;2022-11-23T06:53:47;22.87;;;16.93;;
13805;SDS011;6974;53.606;9.872;2022-11-23T06:56:14;24.50;;;16.90;;
13805;SDS011;6974;53.606;9.872;2022-11-23T06:58:41;22.90;;;15.37;;
13805;SDS011;6974;53.606;9.872;2022-11-23T07:01:10;23.87;;;15.93;;
13805;SDS011;6974;53.606;9.872;2022-11-23T07:03:37;28.07;;;16.13;;
13805;SDS011;6974;53.606;9.872;2022-11-23T07:06:04;22.83;;;15.57;;
13805;SDS011;6974;53.606;9.872;2022-11-23T07:08:31;23.80;;;16.40;;
13805;SDS011;6974;53.606;9.872;2022-11-23T07:10:59;23.93;;;15.97;;
13805;SDS011;6974;53.606;9.872;2022-11-23T07:13:27;23.63;;;15.17;;
13805;SDS011;6974;53.606;9.872;2022-11-23T07:15:54;24.17;;;16.73;;
13805;SDS011;6974;53.606;9.872;2022-11-23T07:18:24;22.80;;;15.33;;
13805;SDS011;6974;53.606;9.872;2022-11-23T07:20:51;23.60;;;15.40;;
13805;SDS011;6974;53.606;9.872;2022-11-23T07:23:18;23.90;;;14.83;;
13805;SDS011;6974;53.606;9.872;2022-11-23T07:25:46;22.97;;;14.80;;
13805;SDS011;6974;53.606;9.872;2022-11-23T07:28:13;22.33;;;14.93;;
13805;SDS011;6974;53.606;9.872;2022-11-23T07:30:40;19.93;;;13.77;;
13805;SDS011;6974;53.606;9.872;2022-11-23T07:33:07;19.60;;;13.60;;
13805;SDS011;6974;53.606;9.872;2022-11-23T07:35:37;23.40;;;14.50;;
13805;SDS011;6974;53.606;9.872;2022-11-23T07:38:05;18.07;;;13.13;;
13805;SDS011;6974;53.606;9.872;2022-11-23T07:40:33;19.47;;;13.00;;
13805;SDS011;6974;53.606;9.872;2022-11-23T07:43:02;18.07;;;12.83;;
13805;SDS011;6974;53.606;9.872;2022-11-23T07:45:30;18.83;;;13.30;;
13805;SDS011;6974;53.606;9.872;2022-11-23T07:47:57;17.67;;;12.67;;
13805;SDS011;6974;53.606;9.872;2022-11-23T07:50:25;19.20;;;12.73;;
13805;SDS011;6974;53.606;9.872;2022-11-23T07:52:53;20.00;;;12.57;;
13805;SDS011;6974;53.606;9.872;2022-11-23T07:55:20;18.97;;;11.80;;
13805;SDS011;6974;53.606;9.872;2022-11-23T07:57:50;18.60;;;11.97;;
13805;SDS011;6974;53.606;9.872;2022-11-23T08:00:18;17.53;;;13.13;;
13805;SDS011;6974;53.606;9.872;2022-11-23T08:02:46;18.03;;;12.30;;
13805;SDS011;6974;53.606;9.872;2022-11-23T08:05:13;16.77;;;12.17;;
13805;SDS011;6974;53.606;9.872;2022-11-23T08:07:40;16.17;;;11.47;;
13805;SDS011;6974;53.606;9.872;2022-11-23T08:10:09;16.93;;;12.33;;
13805;SDS011;6974;53.606;9.872;2022-11-23T08:12:36;17.93;;;11.97;;
13805;SDS011;6974;53.606;9.872;2022-11-23T08:15:03;20.37;;;12.40;;
13805;SDS011;6974;53.606;9.872;2022-11-23T08:17:31;20.23;;;11.63;;
13805;SDS011;6974;53.606;9.872;2022-11-23T08:19:58;19.83;;;11.90;;
13805;SDS011;6974;53.606;9.872;2022-11-23T08:22:25;20.27;;;12.47;;
13805;SDS011;6974;53.606;9.872;2022-11-23T08:24:52;15.27;;;12.03;;
13805;SDS011;6974;53.606;9.872;2022-11-23T08:27:20;15.67;;;10.30;;
13805;SDS011;6974;53.606;9.872;2022-11-23T08:29:47;14.47;;;11.10;;
13805;SDS011;6974;53.606;9.872;2022-11-23T08:32:14;17.10;;;11.20;;
13805;SDS011;6974;53.606;9.872;2022-11-23T08:34:41;17.90;;;10.93;;
13805;SDS011;6974;53.606;9.872;2022-11-23T08:37:09;14.50;;;11.37;;
13805;SDS011;6974;53.606;9.872;2022-11-23T08:39:35;17.33;;;11.30;;
13805;SDS011;6974;53.606;9.872;2022-11-23T08:42:02;17.53;;;11.33;;
13805;SDS011;6974;53.606;9.872;2022-11-23T08:44:31;17.37;;;11.17;;
13805;SDS011;6974;53.606;9.872;2022-11-23T08:46:58;18.20;;;10.93;;
13805;SDS011;6974;53.606;9.872;2022-11-23T08:49:25;17.03;;;10.87;;
13805;SDS011;6974;53.606;9.872;2022-11-23T08:51:52;14.37;;;10.27;;
13805;SDS011;6974;53.606;9.872;2022-11-23T08:54:19;13.20;;;10.73;;
13805;SDS011;6974;53.606;9.872;2022-11-23T08:56:48;16.13;;;10.37;;
13805;SDS011;6974;53.606;9.872;2022-11-23T08:59:15;14.90;;;10.17;;
13805;SDS011;6974;53.606;9.872;2022-11-23T09:01:44;13.77;;;10.20;;
13805;SDS011;6974;53.606;9.872;2022-11-23T09:04:11;14.23;;;10.03;;
13805;SDS011;6974;53.606;9.872;2022-11-23T09:06:38;17.37;;;9.87;;
13805;SDS011;6974;53.606;9.872;2022-11-23T09:11:32;12.70;;;9.83;;
13805;SDS011;6974;53.606;9.872;2022-11-23T09:13:59;13.80;;;10.00;;
13805;SDS011;6974;53.606;9.872;2022-11-23T09:16:26;13.07;;;9.53;;
13805;SDS011;6974;53.606;9.872;2022-11-23T09:18:56;14.50;;;10.07;;
13805;SDS011;6974;53.606;9.872;2022-11-23T09:21:23;13.57;;;9.53;;
13805;SDS011;6974;53.606;9.872;2022-11-23T09:23:54;12.57;;;9.50;;
13805;SDS011;6974;53.606;9.872;2022-11-23T09:26:21;13.17;;;8.97;;
13805;SDS011;6974;53.606;9.872;2022-11-23T09:28:49;14.10;;;9.87;;
13805;SDS011;6974;53.606;9.872;2022-11-23T09:31:16;15.03;;;9.90;;
13805;SDS011;6974;53.606;9.872;2022-11-23T09:33:44;11.43;;;9.17;;
13805;SDS011;6974;53.606;9.872;2022-11-23T09:36:13;13.63;;;9.27;;
13805;SDS011;6974;53.606;9.872;2022-11-23T09:38:40;17.17;;;10.13;;
13805;SDS011;6974;53.606;9.872;2022-11-23T09:41:12;14.87;;;8.97;;
13805;SDS011;6974;53.606;9.872;2022-11-23T09:43:50;15.63;;;8.77;;
13805;SDS011;6974;53.606;9.872;2022-11-23T09:46:28;13.93;;;9.23;;
13805;SDS011;6974;53.606;9.872;2022-11-23T09:49:09;15.93;;;8.97;;
13805;SDS011;6974;53.606;9.872;2022-11-23T09:51:41;14.13;;;8.87;;
13805;SDS011;6974;53.606;9.872;2022-11-23T09:54:21;11.57;;;8.57;;
13805;SDS011;6974;53.606;9.872;2022-11-23T09:56:53;12.40;;;8.73;;
13805;SDS011;6974;53.606;9.872;2022-11-23T09:59:24;14.20;;;8.87;;
13805;SDS011;6974;53.606;9.872;2022-11-23T10:02:00;14.67;;;8.23;;
13805;SDS011;6974;53.606;9.872;2022-11-23T10:04:28;11.87;;;7.80;;
13805;SDS011;6974;53.606;9.872;2022-11-23T10:07:07;12.67;;;8.00;;
13805;SDS011;6974;53.606;9.872;2022-11-23T10:09:48;12.13;;;8.40;;
13805;SDS011;6974;53.606;9.872;2022-11-23T10:12:29;14.17;;;8.17;;
13805;SDS011;6974;53.606;9.872;2022-11-23T10:15:09;11.37;;;7.60;;
13805;SDS011;6974;53.606;9.872;2022-11-23T10:17:53;13.87;;;8.13;;
13805;SDS011;6974;53.606;9.872;2022-11-23T10:20:31;11.50;;;7.50;;
13805;SDS011;6974;53.606;9.872;2022-11-23T10:23:26;14.00;;;8.10;;
13805;SDS011;6974;53.606;9.872;2022-11-23T10:26:03;12.23;;;8.40;;
13805;SDS011;6974;53.606;9.872;2022-11-23T10:28:34;12.80;;;7.73;;
13805;SDS011;6974;53.606;9.872;2022-11-23T10:31:03;12.77;;;8.40;;
13805;SDS011;6974;53.606;9.872;2022-11-23T10:33:40;11.90;;;7.60;;
13805;SDS011;6974;53.606;9.872;2022-11-23T10:36:15;14.20;;;8.20;;
13805;SDS011;6974;53.606;9.872;2022-11-23T10:38:44;11.93;;;7.93;;
13805;SDS011;6974;53.606;9.872;2022-11-23T10:41:17;13.20;;;7.10;;
13805;SDS011;6974;53.606;9.872;2022-11-23T10:43:45;13.43;;;8.20;;
13805;SDS011;6974;53.606;9.872;2022-11-23T10:46:26;11.30;;;7.03;;
13805;SDS011;6974;53.606;9.872;2022-11-23T10:49:07;10.90;;;7.50;;
13805;SDS011;6974;53.606;9.872;2022-11-23T10:51:35;12.47;;;7.73;;
13805;SDS011;6974;53.606;9.872;2022-11-23T10:54:05;13.30;;;7.57;;
13805;SDS011;6974;53.606;9.872;2022-11-23T10:56:45;10.03;;;7.23;;
13805;SDS011;6974;53.606;9.872;2022-11-23T10:59:24;9.40;;;6.80;;
13805;SDS011;6974;53.606;9.872;2022-11-23T11:04:44;12.77;;;7.00;;
13805;SDS011;6974;53.606;9.872;2022-11-23T11:07:17;11.77;;;7.57;;
13805;SDS011;6974;53.606;9.872;2022-11-23T11:09:49;11.47;;;7.70;;
13805;SDS011;6974;53.606;9.872;2022-11-23T11:12:19;13.83;;;7.43;;
13805;SDS011;6974;53.606;9.872;2022-11-23T11:14:53;10.73;;;7.00;;
13805;SDS011;6974;53.606;9.872;2022-11-23T11:17:25;11.13;;;7.80;;
13805;SDS011;6974;53.606;9.872;2022-11-23T11:19:54;12.50;;;7.20;;
13805;SDS011;6974;53.606;9.872;2022-11-23T11:22:25;13.47;;;7.13;;
13805;SDS011;6974;53.606;9.872;2022-11-23T11:24:56;11.93;;;7.37;;
13805;SDS011;6974;53.606;9.872;2022-11-23T11:27:27;11.50;;;7.47;;
13805;SDS011;6974;53.606;9.872;2022-11-23T11:29:56;11.03;;;7.70;;
13805;SDS011;6974;53.606;9.872;2022-11-23T11:32:29;10.20;;;7.10;;
13805;SDS011;6974;53.606;9.872;2022-11-23T11:35:02;12.13;;;6.60;;
13805;SDS011;6974;53.606;9.872;2022-11-23T11:37:39;8.90;;;6.63;;
13805;SDS011;6974;53.606;9.872;2022-11-23T11:40:17;13.67;;;6.40;;
13805;SDS011;6974;53.606;9.872;2022-11-23T11:42:49;13.97;;;7.47;;
13805;SDS011;6974;53.606;9.872;2022-11-23T11:45:21;10.73;;;5.77;;
13805;SDS011;6974;53.606;9.872;2022-11-23T11:47:52;14.17;;;7.43;;
13805;SDS011;6974;53.606;9.872;2022-11-23T11:50:25;11.60;;;6.93;;
13805;SDS011;6974;53.606;9.872;2022-11-23T11:52:57;10.83;;;6.63;;
13805;SDS011;6974;53.606;9.872;2022-11-23T11:55:32;10.90;;;6.37;;
13805;SDS011;6974;53.606;9.872;2022-11-23T11:58:10;10.87;;;6.90;;
13805;SDS011;6974;53.606;9.872;2022-11-23T12:00:41;11.20;;;6.63;;
13805;SDS011;6974;53.606;9.872;2022-11-23T12:03:13;10.73;;;6.40;;
13805;SDS011;6974;53.606;9.872;2022-11-23T12:05:48;9.57;;;6.60;;
13805;SDS011;6974;53.606;9.872;2022-11-23T12:08:20;7.50;;;5.90;;
13805;SDS011;6974;53.606;9.872;2022-11-23T12:10:54;12.30;;;6.30;;
13805;SDS011;6974;53.606;9.872;2022-11-23T12:13:24;11.93;;;6.23;;
13805;SDS011;6974;53.606;9.872;2022-11-23T12:15:55;10.67;;;6.20;;
13805;SDS011;6974;53.606;9.872;2022-11-23T12:18:40;9.13;;;5.80;;
13805;SDS011;6974;53.606;9.872;2022-11-23T12:24:14;8.77;;;5.93;;
13805;SDS011;6974;53.606;9.872;2022-11-23T12:26:49;9.67;;;5.90;;
13805;SDS011;6974;53.606;9.872;2022-11-23T12:29:30;8.93;;;5.80;;
13805;SDS011;6974;53.606;9.872;2022-11-23T12:32:08;11.37;;;5.80;;
13805;SDS011;6974;53.606;9.872;2022-11-23T12:34:52;10.47;;;5.97;;
13805;SDS011;6974;53.606;9.872;2022-11-23T12:37:30;13.23;;;5.73;;
13805;SDS011;6974;53.606;9.872;2022-11-23T12:40:13;9.40;;;6.00;;
13805;SDS011;6974;53.606;9.872;2022-11-23T12:43:04;8.50;;;5.53;;
13805;SDS011;6974;53.606;9.872;2022-11-23T12:45:39;10.50;;;5.53;;
13805;SDS011;6974;53.606;9.872;2022-11-23T12:48:21;9.57;;;5.77;;
13805;SDS011;6974;53.606;9.872;2022-11-23T12:51:01;10.27;;;5.73;;
13805;SDS011;6974;53.606;9.872;2022-11-23T12:53:38;10.40;;;5.73;;
13805;SDS011;6974;53.606;9.872;2022-11-23T12:56:16;9.37;;;5.47;;
13805;SDS011;6974;53.606;9.872;2022-11-23T12:58:53;9.57;;;5.37;;
13805;SDS011;6974;53.606;9.872;2022-11-23T13:01:21;10.07;;;5.10;;
13805;SDS011;6974;53.606;9.872;2022-11-23T13:04:01;10.23;;;4.77;;
13805;SDS011;6974;53.606;9.872;2022-11-23T13:06:56;6.33;;;4.40;;
13805;SDS011;6974;53.606;9.872;2022-11-23T13:12:43;9.50;;;5.57;;
13805;SDS011;6974;53.606;9.872;2022-11-23T13:15:28;10.10;;;5.33;;
13805;SDS011;6974;53.606;9.872;2022-11-23T13:18:08;6.80;;;4.50;;
13805;SDS011;6974;53.606;9.872;2022-11-23T13:20:48;8.20;;;4.50;;
13805;SDS011;6974;53.606;9.872;2022-11-23T13:23:33;11.17;;;4.70;;
13805;SDS011;6974;53.606;9.872;2022-11-23T13:26:11;7.43;;;4.13;;
13805;SDS011;6974;53.606;9.872;2022-11-23T13:28:42;9.37;;;4.53;;
13805;SDS011;6974;53.606;9.872;2022-11-23T13:33:56;8.93;;;4.63;;
13805;SDS011;6974;53.606;9.872;2022-11-23T13:36:34;8.43;;;5.03;;
13805;SDS011;6974;53.606;9.872;2022-11-23T13:42:23;9.97;;;5.50;;
13805;SDS011;6974;53.606;9.872;2022-11-23T13:48:17;6.23;;;4.40;;
13805;SDS011;6974;53.606;9.872;2022-11-23T13:50:55;10.57;;;5.40;;
13805;SDS011;6974;53.606;9.872;2022-11-23T13:53:27;11.53;;;6.00;;
13805;SDS011;6974;53.606;9.872;2022-11-23T13:55:58;10.67;;;5.60;;
13805;SDS011;6974;53.606;9.872;2022-11-23T13:58:48;8.73;;;5.10;;
13805;SDS011;6974;53.606;9.872;2022-11-23T14:04:20;9.80;;;5.20;;
13805;SDS011;6974;53.606;9.872;2022-11-23T14:06:49;8.10;;;5.00;;
13805;SDS011;6974;53.606;9.872;2022-11-23T14:09:22;6.50;;;4.07;;
13805;SDS011;6974;53.606;9.872;2022-11-23T14:11:57;7.67;;;4.57;;
13805;SDS011;6974;53.606;9.872;2022-11-23T14:14:30;10.33;;;4.80;;
13805;SDS011;6974;53.606;9.872;2022-11-23T14:17:14;8.43;;;4.50;;
13805;SDS011;6974;53.606;9.872;2022-11-23T14:20:12;6.80;;;3.90;;
13805;SDS011;6974;53.606;9.872;2022-11-23T14:22:51;8.50;;;4.30;;
13805;SDS011;6974;53.606;9.872;2022-11-23T14:25:38;7.50;;;4.50;;
13805;SDS011;6974;53.606;9.872;2022-11-23T14:28:17;6.73;;;4.27;;
13805;SDS011;6974;53.606;9.872;2022-11-23T14:31:06;6.53;;;3.70;;
13805;SDS011;6974;53.606;9.872;2022-11-23T14:33:46;8.70;;;4.00;;
13805;SDS011;6974;53.606;9.872;2022-11-23T14:36:24;6.87;;;3.80;;
13805;SDS011;6974;53.606;9.872;2022-11-23T14:39:14;7.80;;;3.53;;
13805;SDS011;6974;53.606;9.872;2022-11-23T14:42:09;9.07;;;3.97;;
13805;SDS011;6974;53.606;9.872;2022-11-23T14:44:39;7.03;;;4.23;;
13805;SDS011;6974;53.606;9.872;2022-11-23T14:47:09;8.03;;;3.90;;
13805;SDS011;6974;53.606;9.872;2022-11-23T14:49:47;9.70;;;4.40;;
13805;SDS011;6974;53.606;9.872;2022-11-23T14:52:18;7.90;;;4.40;;
13805;SDS011;6974;53.606;9.872;2022-11-23T14:54:47;8.93;;;5.73;;
13805;SDS011;6974;53.606;9.872;2022-11-23T14:57:16;9.33;;;4.20;;
13805;SDS011;6974;53.606;9.872;2022-11-23T14:59:46;6.57;;;3.83;;
13805;SDS011;6974;53.606;9.872;2022-11-23T15:02:16;6.47;;;3.97;;
13805;SDS011;6974;53.606;9.872;2022-11-23T15:04:53;8.73;;;4.30;;
13805;SDS011;6974;53.606;9.872;2022-11-23T15:07:30;10.33;;;5.03;;
13805;SDS011;6974;53.606;9.872;2022-11-23T15:15:15;6.30;;;3.87;;
13805;SDS011;6974;53.606;9.872;2022-11-23T15:17:51;6.20;;;4.33;;
13805;SDS011;6974;53.606;9.872;2022-11-23T15:20:21;8.00;;;4.77;;
13805;SDS011;6974;53.606;9.872;2022-11-23T15:22:52;6.80;;;4.30;;
13805;SDS011;6974;53.606;9.872;2022-11-23T15:25:19;11.87;;;4.77;;
13805;SDS011;6974;53.606;9.872;2022-11-23T15:27:48;9.57;;;5.10;;
13805;SDS011;6974;53.606;9.872;2022-11-23T15:30:16;8.33;;;5.03;;